Doyon, North Dakota
Current Conditions -  °F | °C
As of 1:55 PM on Tuesday 21 Oct 2014 (Local Time) from KDVL Reporting Station
Clear Clear  
Wind Chill: 64°   Ceiling: Unl
Heat Index: 64°   Visibility: 10mi
Dew Point: 41°   Wind: 22mph
Humidity: 42%   Direction: 150°SSE
Pressure: 29.79"   Gusts: 30mph
Location:  48.0187°N, 98.6029°W
Report Text: KDVL 211855Z AUTO 15019G26KT 10SM CLR 18/05 A2979 RMK AO1
Loading
Personal Weather Stations






























Interactive Weather Map
Tropical Storm Tracking
New forecast layout! Learn more

10-Day Weather Forecast

Advertisements
Track Severe Weather on mobile